sensor_id;sensor_type;location;lat;lon;timestamp;P1;durP1;ratioP1;P2;durP2;ratioP2
81544;SDS011;70990;50.618;7.346;2024-03-07T00:02:25;15.73;;;6.35;;
81544;SDS011;70990;50.618;7.346;2024-03-07T00:04:52;17.52;;;6.78;;
81544;SDS011;70990;50.618;7.346;2024-03-07T00:07:18;17.00;;;6.60;;
81544;SDS011;70990;50.618;7.346;2024-03-07T00:09:45;18.15;;;7.03;;
81544;SDS011;70990;50.618;7.346;2024-03-07T00:12:11;19.45;;;7.30;;
81544;SDS011;70990;50.618;7.346;2024-03-07T00:14:38;17.27;;;7.95;;
81544;SDS011;70990;50.618;7.346;2024-03-07T00:17:04;16.85;;;6.07;;
81544;SDS011;70990;50.618;7.346;2024-03-07T00:19:31;17.85;;;7.25;;
81544;SDS011;70990;50.618;7.346;2024-03-07T00:21:58;18.23;;;7.00;;
81544;SDS011;70990;50.618;7.346;2024-03-07T00:24:25;19.65;;;8.10;;
81544;SDS011;70990;50.618;7.346;2024-03-07T00:26:52;15.20;;;7.15;;
81544;SDS011;70990;50.618;7.346;2024-03-07T00:29:20;19.48;;;7.30;;
81544;SDS011;70990;50.618;7.346;2024-03-07T00:31:46;22.48;;;7.78;;
81544;SDS011;70990;50.618;7.346;2024-03-07T00:34:13;18.27;;;7.00;;
81544;SDS011;70990;50.618;7.346;2024-03-07T00:36:50;18.17;;;7.68;;
81544;SDS011;70990;50.618;7.346;2024-03-07T00:39:17;18.95;;;7.03;;
81544;SDS011;70990;50.618;7.346;2024-03-07T00:41:43;19.10;;;7.72;;
81544;SDS011;70990;50.618;7.346;2024-03-07T00:44:10;20.77;;;7.47;;
81544;SDS011;70990;50.618;7.346;2024-03-07T00:46:37;22.98;;;7.75;;
81544;SDS011;70990;50.618;7.346;2024-03-07T00:49:04;19.17;;;7.25;;
81544;SDS011;70990;50.618;7.346;2024-03-07T00:51:31;18.52;;;6.95;;
81544;SDS011;70990;50.618;7.346;2024-03-07T00:53:58;19.30;;;7.43;;
81544;SDS011;70990;50.618;7.346;2024-03-07T00:56:25;18.52;;;7.60;;
81544;SDS011;70990;50.618;7.346;2024-03-07T00:58:52;21.23;;;6.85;;
81544;SDS011;70990;50.618;7.346;2024-03-07T01:01:18;18.27;;;6.88;;
81544;SDS011;70990;50.618;7.346;2024-03-07T01:03:45;16.40;;;7.20;;
81544;SDS011;70990;50.618;7.346;2024-03-07T01:06:11;18.45;;;7.32;;
81544;SDS011;70990;50.618;7.346;2024-03-07T01:08:38;18.73;;;6.45;;
81544;SDS011;70990;50.618;7.346;2024-03-07T01:11:06;18.50;;;7.53;;
81544;SDS011;70990;50.618;7.346;2024-03-07T01:13:33;19.58;;;7.53;;
81544;SDS011;70990;50.618;7.346;2024-03-07T01:15:59;13.77;;;5.97;;
81544;SDS011;70990;50.618;7.346;2024-03-07T01:18:26;18.65;;;7.72;;
81544;SDS011;70990;50.618;7.346;2024-03-07T01:20:52;20.05;;;8.30;;
81544;SDS011;70990;50.618;7.346;2024-03-07T01:23:19;18.92;;;7.47;;
81544;SDS011;70990;50.618;7.346;2024-03-07T01:25:45;21.50;;;8.15;;
81544;SDS011;70990;50.618;7.346;2024-03-07T01:28:12;18.52;;;7.32;;
81544;SDS011;70990;50.618;7.346;2024-03-07T01:30:38;18.77;;;6.55;;
81544;SDS011;70990;50.618;7.346;2024-03-07T01:33:05;17.95;;;7.50;;
81544;SDS011;70990;50.618;7.346;2024-03-07T01:35:31;20.27;;;8.25;;
81544;SDS011;70990;50.618;7.346;2024-03-07T01:37:58;18.65;;;7.13;;
81544;SDS011;70990;50.618;7.346;2024-03-07T01:40:25;21.48;;;8.85;;
81544;SDS011;70990;50.618;7.346;2024-03-07T01:42:51;21.25;;;9.00;;
81544;SDS011;70990;50.618;7.346;2024-03-07T01:45:18;18.63;;;7.57;;
81544;SDS011;70990;50.618;7.346;2024-03-07T01:47:44;18.55;;;7.47;;
81544;SDS011;70990;50.618;7.346;2024-03-07T01:50:11;23.92;;;7.38;;
81544;SDS011;70990;50.618;7.346;2024-03-07T01:52:39;21.40;;;7.38;;
81544;SDS011;70990;50.618;7.346;2024-03-07T01:55:07;22.45;;;8.23;;
81544;SDS011;70990;50.618;7.346;2024-03-07T01:57:34;20.90;;;8.02;;
81544;SDS011;70990;50.618;7.346;2024-03-07T02:00:01;23.23;;;8.25;;
81544;SDS011;70990;50.618;7.346;2024-03-07T02:02:32;19.50;;;8.77;;
81544;SDS011;70990;50.618;7.346;2024-03-07T02:05:00;22.25;;;8.00;;
81544;SDS011;70990;50.618;7.346;2024-03-07T02:07:27;18.73;;;7.05;;
81544;SDS011;70990;50.618;7.346;2024-03-07T02:10:01;22.60;;;7.75;;
81544;SDS011;70990;50.618;7.346;2024-03-07T02:12:29;19.85;;;7.78;;
81544;SDS011;70990;50.618;7.346;2024-03-07T02:14:57;22.58;;;7.63;;
81544;SDS011;70990;50.618;7.346;2024-03-07T02:17:24;19.33;;;7.95;;
81544;SDS011;70990;50.618;7.346;2024-03-07T02:19:53;19.75;;;8.30;;
81544;SDS011;70990;50.618;7.346;2024-03-07T02:22:20;17.70;;;7.35;;
81544;SDS011;70990;50.618;7.346;2024-03-07T02:24:47;21.95;;;7.40;;
81544;SDS011;70990;50.618;7.346;2024-03-07T02:27:14;21.15;;;8.45;;
81544;SDS011;70990;50.618;7.346;2024-03-07T02:29:41;19.60;;;8.38;;
81544;SDS011;70990;50.618;7.346;2024-03-07T02:32:08;25.67;;;9.48;;
81544;SDS011;70990;50.618;7.346;2024-03-07T02:34:36;18.60;;;8.13;;
81544;SDS011;70990;50.618;7.346;2024-03-07T02:37:03;23.77;;;8.95;;
81544;SDS011;70990;50.618;7.346;2024-03-07T02:39:30;22.60;;;8.63;;
81544;SDS011;70990;50.618;7.346;2024-03-07T02:41:57;22.13;;;8.55;;
81544;SDS011;70990;50.618;7.346;2024-03-07T02:44:24;24.60;;;8.10;;
81544;SDS011;70990;50.618;7.346;2024-03-07T02:46:51;23.67;;;8.85;;
81544;SDS011;70990;50.618;7.346;2024-03-07T02:49:18;22.48;;;9.43;;
81544;SDS011;70990;50.618;7.346;2024-03-07T02:51:44;24.73;;;8.52;;
81544;SDS011;70990;50.618;7.346;2024-03-07T02:54:12;23.85;;;8.73;;
81544;SDS011;70990;50.618;7.346;2024-03-07T02:56:39;19.63;;;8.20;;
81544;SDS011;70990;50.618;7.346;2024-03-07T02:59:05;21.67;;;8.57;;
81544;SDS011;70990;50.618;7.346;2024-03-07T03:01:32;18.52;;;7.70;;
81544;SDS011;70990;50.618;7.346;2024-03-07T03:04:00;20.90;;;8.85;;
81544;SDS011;70990;50.618;7.346;2024-03-07T03:06:27;18.80;;;8.07;;
81544;SDS011;70990;50.618;7.346;2024-03-07T03:08:54;18.55;;;7.63;;
81544;SDS011;70990;50.618;7.346;2024-03-07T03:11:21;19.55;;;7.55;;
81544;SDS011;70990;50.618;7.346;2024-03-07T03:13:48;22.92;;;8.15;;
81544;SDS011;70990;50.618;7.346;2024-03-07T03:16:14;23.08;;;8.43;;
81544;SDS011;70990;50.618;7.346;2024-03-07T03:18:41;22.67;;;8.15;;
81544;SDS011;70990;50.618;7.346;2024-03-07T03:21:09;21.15;;;7.70;;
81544;SDS011;70990;50.618;7.346;2024-03-07T03:23:36;26.38;;;9.23;;
81544;SDS011;70990;50.618;7.346;2024-03-07T03:26:03;22.88;;;8.48;;
81544;SDS011;70990;50.618;7.346;2024-03-07T03:28:30;21.45;;;8.40;;
81544;SDS011;70990;50.618;7.346;2024-03-07T03:30:58;24.35;;;8.77;;
81544;SDS011;70990;50.618;7.346;2024-03-07T03:33:27;23.13;;;8.63;;
81544;SDS011;70990;50.618;7.346;2024-03-07T03:35:54;24.92;;;9.00;;
81544;SDS011;70990;50.618;7.346;2024-03-07T03:38:21;24.42;;;8.88;;
81544;SDS011;70990;50.618;7.346;2024-03-07T03:40:48;22.33;;;9.32;;
81544;SDS011;70990;50.618;7.346;2024-03-07T03:43:15;23.70;;;7.65;;
81544;SDS011;70990;50.618;7.346;2024-03-07T03:45:42;23.95;;;8.73;;
81544;SDS011;70990;50.618;7.346;2024-03-07T03:48:09;26.15;;;9.95;;
81544;SDS011;70990;50.618;7.346;2024-03-07T03:50:36;21.52;;;7.78;;
81544;SDS011;70990;50.618;7.346;2024-03-07T03:53:03;20.42;;;8.75;;
81544;SDS011;70990;50.618;7.346;2024-03-07T03:55:31;25.92;;;9.68;;
81544;SDS011;70990;50.618;7.346;2024-03-07T03:57:58;23.52;;;9.65;;
81544;SDS011;70990;50.618;7.346;2024-03-07T04:00:25;28.52;;;10.52;;
81544;SDS011;70990;50.618;7.346;2024-03-07T04:02:52;24.08;;;8.90;;
81544;SDS011;70990;50.618;7.346;2024-03-07T04:05:19;26.00;;;9.82;;
81544;SDS011;70990;50.618;7.346;2024-03-07T04:07:47;26.25;;;9.68;;
81544;SDS011;70990;50.618;7.346;2024-03-07T04:10:15;25.05;;;10.30;;
81544;SDS011;70990;50.618;7.346;2024-03-07T04:12:44;31.40;;;10.43;;
81544;SDS011;70990;50.618;7.346;2024-03-07T04:15:12;26.27;;;9.95;;
81544;SDS011;70990;50.618;7.346;2024-03-07T04:17:40;27.70;;;11.02;;
81544;SDS011;70990;50.618;7.346;2024-03-07T04:20:08;26.50;;;10.07;;
81544;SDS011;70990;50.618;7.346;2024-03-07T04:22:35;30.42;;;11.65;;
81544;SDS011;70990;50.618;7.346;2024-03-07T04:25:03;27.90;;;10.63;;
81544;SDS011;70990;50.618;7.346;2024-03-07T04:27:31;27.27;;;10.02;;
81544;SDS011;70990;50.618;7.346;2024-03-07T04:29:57;23.15;;;10.43;;
81544;SDS011;70990;50.618;7.346;2024-03-07T04:32:25;23.20;;;9.88;;
81544;SDS011;70990;50.618;7.346;2024-03-07T04:34:52;24.27;;;9.38;;
81544;SDS011;70990;50.618;7.346;2024-03-07T04:37:19;24.40;;;9.00;;
81544;SDS011;70990;50.618;7.346;2024-03-07T04:39:46;24.30;;;9.30;;
81544;SDS011;70990;50.618;7.346;2024-03-07T04:42:13;27.23;;;9.45;;
81544;SDS011;70990;50.618;7.346;2024-03-07T04:44:47;28.38;;;9.75;;
81544;SDS011;70990;50.618;7.346;2024-03-07T04:47:14;22.58;;;9.10;;
81544;SDS011;70990;50.618;7.346;2024-03-07T04:49:40;26.30;;;9.00;;
81544;SDS011;70990;50.618;7.346;2024-03-07T04:52:08;26.05;;;10.18;;
81544;SDS011;70990;50.618;7.346;2024-03-07T04:54:35;23.85;;;10.68;;
81544;SDS011;70990;50.618;7.346;2024-03-07T04:57:02;24.60;;;10.05;;
81544;SDS011;70990;50.618;7.346;2024-03-07T04:59:28;21.58;;;9.05;;
81544;SDS011;70990;50.618;7.346;2024-03-07T05:01:55;24.10;;;10.80;;
81544;SDS011;70990;50.618;7.346;2024-03-07T05:04:22;25.90;;;10.00;;
81544;SDS011;70990;50.618;7.346;2024-03-07T05:06:48;25.58;;;9.30;;
81544;SDS011;70990;50.618;7.346;2024-03-07T05:09:15;23.83;;;10.52;;
81544;SDS011;70990;50.618;7.346;2024-03-07T05:11:41;25.00;;;8.73;;
81544;SDS011;70990;50.618;7.346;2024-03-07T05:14:08;24.17;;;9.98;;
81544;SDS011;70990;50.618;7.346;2024-03-07T05:16:35;29.23;;;10.05;;
81544;SDS011;70990;50.618;7.346;2024-03-07T05:19:02;23.33;;;8.73;;
81544;SDS011;70990;50.618;7.346;2024-03-07T05:21:28;25.20;;;9.57;;
81544;SDS011;70990;50.618;7.346;2024-03-07T05:23:54;29.30;;;9.90;;
81544;SDS011;70990;50.618;7.346;2024-03-07T05:26:21;28.35;;;9.63;;
81544;SDS011;70990;50.618;7.346;2024-03-07T05:28:48;28.52;;;10.30;;
81544;SDS011;70990;50.618;7.346;2024-03-07T05:31:14;25.85;;;9.63;;
81544;SDS011;70990;50.618;7.346;2024-03-07T05:33:41;23.33;;;9.07;;
81544;SDS011;70990;50.618;7.346;2024-03-07T05:36:07;22.08;;;9.60;;
81544;SDS011;70990;50.618;7.346;2024-03-07T05:38:34;22.25;;;8.43;;
81544;SDS011;70990;50.618;7.346;2024-03-07T05:41:00;25.80;;;10.18;;
81544;SDS011;70990;50.618;7.346;2024-03-07T05:43:27;21.27;;;8.10;;
81544;SDS011;70990;50.618;7.346;2024-03-07T05:45:53;21.08;;;8.35;;
81544;SDS011;70990;50.618;7.346;2024-03-07T05:48:20;23.85;;;8.57;;
81544;SDS011;70990;50.618;7.346;2024-03-07T05:50:46;25.70;;;9.38;;
81544;SDS011;70990;50.618;7.346;2024-03-07T05:53:13;25.08;;;9.80;;
81544;SDS011;70990;50.618;7.346;2024-03-07T05:55:39;23.20;;;9.23;;
81544;SDS011;70990;50.618;7.346;2024-03-07T05:58:06;24.20;;;8.90;;
81544;SDS011;70990;50.618;7.346;2024-03-07T06:00:32;25.63;;;9.55;;
81544;SDS011;70990;50.618;7.346;2024-03-07T06:02:59;23.88;;;9.45;;
81544;SDS011;70990;50.618;7.346;2024-03-07T06:05:25;23.88;;;9.32;;
81544;SDS011;70990;50.618;7.346;2024-03-07T06:07:52;28.25;;;9.27;;
81544;SDS011;70990;50.618;7.346;2024-03-07T06:10:18;25.55;;;9.00;;
81544;SDS011;70990;50.618;7.346;2024-03-07T06:12:45;23.35;;;8.80;;
81544;SDS011;70990;50.618;7.346;2024-03-07T06:15:26;21.40;;;7.93;;
81544;SDS011;70990;50.618;7.346;2024-03-07T06:17:53;21.85;;;8.63;;
81544;SDS011;70990;50.618;7.346;2024-03-07T06:20:19;19.88;;;8.02;;
81544;SDS011;70990;50.618;7.346;2024-03-07T06:22:46;21.55;;;8.40;;
81544;SDS011;70990;50.618;7.346;2024-03-07T06:25:12;26.10;;;9.25;;
81544;SDS011;70990;50.618;7.346;2024-03-07T06:27:39;22.02;;;9.15;;
81544;SDS011;70990;50.618;7.346;2024-03-07T06:30:06;21.33;;;8.63;;
81544;SDS011;70990;50.618;7.346;2024-03-07T06:32:33;23.48;;;8.73;;
81544;SDS011;70990;50.618;7.346;2024-03-07T06:34:59;24.02;;;8.43;;
81544;SDS011;70990;50.618;7.346;2024-03-07T06:37:26;24.45;;;8.65;;
81544;SDS011;70990;50.618;7.346;2024-03-07T06:39:53;20.98;;;8.10;;
81544;SDS011;70990;50.618;7.346;2024-03-07T06:42:24;24.98;;;8.90;;
81544;SDS011;70990;50.618;7.346;2024-03-07T06:44:51;21.48;;;9.77;;
81544;SDS011;70990;50.618;7.346;2024-03-07T06:47:17;23.92;;;8.60;;
81544;SDS011;70990;50.618;7.346;2024-03-07T06:49:44;25.45;;;10.20;;
81544;SDS011;70990;50.618;7.346;2024-03-07T06:52:10;27.80;;;9.98;;
81544;SDS011;70990;50.618;7.346;2024-03-07T06:54:37;28.00;;;9.57;;
81544;SDS011;70990;50.618;7.346;2024-03-07T06:57:03;21.25;;;8.27;;
81544;SDS011;70990;50.618;7.346;2024-03-07T06:59:31;27.25;;;8.95;;
81544;SDS011;70990;50.618;7.346;2024-03-07T07:01:57;28.20;;;9.93;;
81544;SDS011;70990;50.618;7.346;2024-03-07T07:04:24;25.27;;;9.00;;
81544;SDS011;70990;50.618;7.346;2024-03-07T07:06:50;28.25;;;11.13;;
81544;SDS011;70990;50.618;7.346;2024-03-07T07:09:17;27.02;;;12.23;;
81544;SDS011;70990;50.618;7.346;2024-03-07T07:11:43;28.58;;;9.90;;
81544;SDS011;70990;50.618;7.346;2024-03-07T07:14:10;24.85;;;8.45;;
81544;SDS011;70990;50.618;7.346;2024-03-07T07:16:36;25.27;;;10.35;;
81544;SDS011;70990;50.618;7.346;2024-03-07T07:19:03;27.65;;;8.95;;
81544;SDS011;70990;50.618;7.346;2024-03-07T07:21:31;22.65;;;8.70;;
81544;SDS011;70990;50.618;7.346;2024-03-07T07:23:57;24.38;;;9.43;;
81544;SDS011;70990;50.618;7.346;2024-03-07T07:26:24;19.98;;;8.70;;
81544;SDS011;70990;50.618;7.346;2024-03-07T07:28:51;20.77;;;8.25;;
81544;SDS011;70990;50.618;7.346;2024-03-07T07:31:17;21.13;;;8.90;;
81544;SDS011;70990;50.618;7.346;2024-03-07T07:33:44;26.70;;;9.15;;
81544;SDS011;70990;50.618;7.346;2024-03-07T07:36:11;22.55;;;8.32;;
81544;SDS011;70990;50.618;7.346;2024-03-07T07:38:37;20.55;;;7.47;;
81544;SDS011;70990;50.618;7.346;2024-03-07T07:41:04;22.23;;;8.50;;
81544;SDS011;70990;50.618;7.346;2024-03-07T07:43:31;15.90;;;7.68;;
81544;SDS011;70990;50.618;7.346;2024-03-07T07:46:08;20.17;;;8.13;;
81544;SDS011;70990;50.618;7.346;2024-03-07T07:48:35;21.05;;;7.55;;
81544;SDS011;70990;50.618;7.346;2024-03-07T07:51:02;20.33;;;8.65;;
81544;SDS011;70990;50.618;7.346;2024-03-07T07:53:30;19.40;;;7.85;;
81544;SDS011;70990;50.618;7.346;2024-03-07T07:55:56;25.08;;;9.23;;
81544;SDS011;70990;50.618;7.346;2024-03-07T07:58:23;17.67;;;7.85;;
81544;SDS011;70990;50.618;7.346;2024-03-07T08:00:51;17.42;;;7.55;;
81544;SDS011;70990;50.618;7.346;2024-03-07T08:03:17;20.35;;;9.23;;
81544;SDS011;70990;50.618;7.346;2024-03-07T08:05:44;25.02;;;8.60;;
81544;SDS011;70990;50.618;7.346;2024-03-07T08:08:11;15.63;;;6.93;;
81544;SDS011;70990;50.618;7.346;2024-03-07T08:10:38;22.80;;;8.65;;
81544;SDS011;70990;50.618;7.346;2024-03-07T08:13:09;23.17;;;7.85;;
81544;SDS011;70990;50.618;7.346;2024-03-07T08:15:36;18.55;;;8.05;;
81544;SDS011;70990;50.618;7.346;2024-03-07T08:18:03;18.73;;;8.75;;
81544;SDS011;70990;50.618;7.346;2024-03-07T08:20:30;18.65;;;7.38;;
81544;SDS011;70990;50.618;7.346;2024-03-07T08:22:57;18.27;;;7.05;;
81544;SDS011;70990;50.618;7.346;2024-03-07T08:25:25;21.67;;;8.18;;
81544;SDS011;70990;50.618;7.346;2024-03-07T08:27:53;15.23;;;7.07;;
81544;SDS011;70990;50.618;7.346;2024-03-07T08:30:21;14.70;;;6.03;;
81544;SDS011;70990;50.618;7.346;2024-03-07T08:32:49;19.02;;;8.32;;
81544;SDS011;70990;50.618;7.346;2024-03-07T08:35:20;18.63;;;8.40;;
81544;SDS011;70990;50.618;7.346;2024-03-07T08:37:49;19.55;;;7.93;;
81544;SDS011;70990;50.618;7.346;2024-03-07T08:40:16;17.02;;;7.60;;
81544;SDS011;70990;50.618;7.346;2024-03-07T08:42:43;19.33;;;7.57;;
81544;SDS011;70990;50.618;7.346;2024-03-07T08:45:10;21.40;;;8.00;;
81544;SDS011;70990;50.618;7.346;2024-03-07T08:47:37;15.48;;;7.43;;
81544;SDS011;70990;50.618;7.346;2024-03-07T08:50:04;16.70;;;7.38;;
81544;SDS011;70990;50.618;7.346;2024-03-07T08:52:31;19.13;;;8.10;;
81544;SDS011;70990;50.618;7.346;2024-03-07T08:54:58;14.05;;;6.20;;
81544;SDS011;70990;50.618;7.346;2024-03-07T08:57:24;16.85;;;7.65;;
81544;SDS011;70990;50.618;7.346;2024-03-07T08:59:51;20.27;;;7.65;;
81544;SDS011;70990;50.618;7.346;2024-03-07T09:02:17;13.27;;;5.45;;
81544;SDS011;70990;50.618;7.346;2024-03-07T09:04:44;19.58;;;6.97;;
81544;SDS011;70990;50.618;7.346;2024-03-07T09:07:11;15.60;;;6.00;;
81544;SDS011;70990;50.618;7.346;2024-03-07T09:09:37;19.80;;;7.57;;
81544;SDS011;70990;50.618;7.346;2024-03-07T09:12:04;13.05;;;5.70;;
81544;SDS011;70990;50.618;7.346;2024-03-07T09:14:31;19.00;;;7.80;;
81544;SDS011;70990;50.618;7.346;2024-03-07T09:16:58;20.20;;;7.55;;
81544;SDS011;70990;50.618;7.346;2024-03-07T09:19:24;13.07;;;5.43;;
81544;SDS011;70990;50.618;7.346;2024-03-07T09:21:51;18.58;;;7.25;;
81544;SDS011;70990;50.618;7.346;2024-03-07T09:24:18;12.40;;;5.60;;
81544;SDS011;70990;50.618;7.346;2024-03-07T09:26:46;16.27;;;6.82;;
81544;SDS011;70990;50.618;7.346;2024-03-07T09:29:16;13.25;;;6.20;;
81544;SDS011;70990;50.618;7.346;2024-03-07T09:31:44;19.70;;;7.38;;
81544;SDS011;70990;50.618;7.346;2024-03-07T09:34:11;18.70;;;6.95;;
81544;SDS011;70990;50.618;7.346;2024-03-07T09:36:38;15.75;;;6.45;;
81544;SDS011;70990;50.618;7.346;2024-03-07T09:39:05;19.13;;;7.55;;
81544;SDS011;70990;50.618;7.346;2024-03-07T09:41:31;17.40;;;6.20;;
81544;SDS011;70990;50.618;7.346;2024-03-07T09:43:58;18.13;;;7.70;;
81544;SDS011;70990;50.618;7.346;2024-03-07T09:46:26;17.50;;;6.50;;
81544;SDS011;70990;50.618;7.346;2024-03-07T09:48:53;15.45;;;5.60;;
81544;SDS011;70990;50.618;7.346;2024-03-07T09:51:20;17.10;;;7.43;;
81544;SDS011;70990;50.618;7.346;2024-03-07T09:53:48;17.38;;;7.28;;
81544;SDS011;70990;50.618;7.346;2024-03-07T09:56:21;17.02;;;6.45;;
81544;SDS011;70990;50.618;7.346;2024-03-07T09:58:49;17.02;;;7.20;;
81544;SDS011;70990;50.618;7.346;2024-03-07T10:01:18;22.73;;;8.35;;
81544;SDS011;70990;50.618;7.346;2024-03-07T10:03:47;17.73;;;7.30;;
81544;SDS011;70990;50.618;7.346;2024-03-07T10:06:14;20.58;;;8.63;;
81544;SDS011;70990;50.618;7.346;2024-03-07T10:08:41;17.02;;;7.85;;
81544;SDS011;70990;50.618;7.346;2024-03-07T10:11:08;16.85;;;7.00;;
81544;SDS011;70990;50.618;7.346;2024-03-07T10:13:36;14.98;;;7.50;;
81544;SDS011;70990;50.618;7.346;2024-03-07T10:16:03;19.15;;;7.88;;
81544;SDS011;70990;50.618;7.346;2024-03-07T10:18:31;16.27;;;6.90;;
81544;SDS011;70990;50.618;7.346;2024-03-07T10:20:58;18.48;;;8.63;;
81544;SDS011;70990;50.618;7.346;2024-03-07T10:23:26;17.13;;;7.20;;
81544;SDS011;70990;50.618;7.346;2024-03-07T10:25:52;18.25;;;6.95;;
81544;SDS011;70990;50.618;7.346;2024-03-07T10:28:19;21.08;;;7.65;;
81544;SDS011;70990;50.618;7.346;2024-03-07T10:30:45;17.13;;;7.53;;
81544;SDS011;70990;50.618;7.346;2024-03-07T10:33:14;17.55;;;7.57;;
81544;SDS011;70990;50.618;7.346;2024-03-07T10:35:41;20.75;;;8.73;;
81544;SDS011;70990;50.618;7.346;2024-03-07T10:38:07;18.90;;;7.40;;
81544;SDS011;70990;50.618;7.346;2024-03-07T10:40:35;18.58;;;6.90;;
81544;SDS011;70990;50.618;7.346;2024-03-07T10:43:04;17.33;;;6.85;;
81544;SDS011;70990;50.618;7.346;2024-03-07T10:45:37;18.40;;;8.30;;
81544;SDS011;70990;50.618;7.346;2024-03-07T10:48:18;16.98;;;6.85;;
81544;SDS011;70990;50.618;7.346;2024-03-07T10:53:52;10.93;;;4.22;;
81544;SDS011;70990;50.618;7.346;2024-03-07T10:56:47;18.92;;;7.68;;
81544;SDS011;70990;50.618;7.346;2024-03-07T10:59:25;20.98;;;8.18;;
81544;SDS011;70990;50.618;7.346;2024-03-07T11:04:40;16.30;;;7.13;;
81544;SDS011;70990;50.618;7.346;2024-03-07T11:07:08;15.48;;;6.82;;
81544;SDS011;70990;50.618;7.346;2024-03-07T11:09:35;15.32;;;6.88;;
81544;SDS011;70990;50.618;7.346;2024-03-07T11:12:05;20.33;;;7.22;;
81544;SDS011;70990;50.618;7.346;2024-03-07T11:14:32;14.13;;;6.00;;
81544;SDS011;70990;50.618;7.346;2024-03-07T11:17:00;15.60;;;5.43;;
81544;SDS011;70990;50.618;7.346;2024-03-07T11:19:28;15.20;;;6.88;;
81544;SDS011;70990;50.618;7.346;2024-03-07T11:21:58;17.27;;;6.80;;
81544;SDS011;70990;50.618;7.346;2024-03-07T11:26:52;12.63;;;4.95;;
81544;SDS011;70990;50.618;7.346;2024-03-07T11:32:14;13.45;;;6.45;;
81544;SDS011;70990;50.618;7.346;2024-03-07T11:34:42;15.85;;;6.90;;
81544;SDS011;70990;50.618;7.346;2024-03-07T11:37:10;17.48;;;6.95;;
81544;SDS011;70990;50.618;7.346;2024-03-07T11:39:43;13.85;;;6.47;;
81544;SDS011;70990;50.618;7.346;2024-03-07T11:42:20;13.98;;;5.85;;
81544;SDS011;70990;50.618;7.346;2024-03-07T11:44:49;16.73;;;6.90;;
81544;SDS011;70990;50.618;7.346;2024-03-07T11:47:16;15.70;;;6.60;;
81544;SDS011;70990;50.618;7.346;2024-03-07T11:49:44;11.45;;;5.13;;
81544;SDS011;70990;50.618;7.346;2024-03-07T11:52:11;19.65;;;7.53;;
81544;SDS011;70990;50.618;7.346;2024-03-07T11:54:38;11.70;;;4.53;;
81544;SDS011;70990;50.618;7.346;2024-03-07T11:57:06;11.93;;;4.75;;
81544;SDS011;70990;50.618;7.346;2024-03-07T11:59:34;17.85;;;5.78;;
81544;SDS011;70990;50.618;7.346;2024-03-07T12:02:00;14.32;;;6.15;;
81544;SDS011;70990;50.618;7.346;2024-03-07T12:04:27;14.93;;;5.93;;
81544;SDS011;70990;50.618;7.346;2024-03-07T12:06:53;18.17;;;5.90;;
81544;SDS011;70990;50.618;7.346;2024-03-07T12:09:20;12.85;;;4.97;;
81544;SDS011;70990;50.618;7.346;2024-03-07T12:11:47;10.43;;;5.10;;
81544;SDS011;70990;50.618;7.346;2024-03-07T12:14:14;11.27;;;5.22;;
81544;SDS011;70990;50.618;7.346;2024-03-07T12:16:40;13.35;;;5.28;;
81544;SDS011;70990;50.618;7.346;2024-03-07T12:19:07;10.40;;;4.88;;
81544;SDS011;70990;50.618;7.346;2024-03-07T12:21:33;14.88;;;6.45;;
81544;SDS011;70990;50.618;7.346;2024-03-07T12:24:02;13.48;;;4.80;;
81544;SDS011;70990;50.618;7.346;2024-03-07T12:26:37;14.35;;;5.53;;
81544;SDS011;70990;50.618;7.346;2024-03-07T12:29:07;11.90;;;5.30;;
81544;SDS011;70990;50.618;7.346;2024-03-07T12:31:35;9.80;;;4.57;;
81544;SDS011;70990;50.618;7.346;2024-03-07T12:34:02;12.13;;;5.63;;
81544;SDS011;70990;50.618;7.346;2024-03-07T12:36:28;11.00;;;3.90;;
81544;SDS011;70990;50.618;7.346;2024-03-07T12:38:55;11.40;;;3.67;;
81544;SDS011;70990;50.618;7.346;2024-03-07T12:41:22;12.43;;;4.45;;
81544;SDS011;70990;50.618;7.346;2024-03-07T12:43:48;12.18;;;4.95;;
81544;SDS011;70990;50.618;7.346;2024-03-07T12:46:16;8.27;;;3.92;;
81544;SDS011;70990;50.618;7.346;2024-03-07T12:48:43;9.15;;;4.40;;
81544;SDS011;70990;50.618;7.346;2024-03-07T12:51:11;12.35;;;4.63;;
81544;SDS011;70990;50.618;7.346;2024-03-07T12:53:38;12.57;;;3.97;;
81544;SDS011;70990;50.618;7.346;2024-03-07T12:56:05;15.80;;;5.50;;
81544;SDS011;70990;50.618;7.346;2024-03-07T12:58:31;12.10;;;5.18;;
81544;SDS011;70990;50.618;7.346;2024-03-07T13:00:59;9.68;;;3.80;;
81544;SDS011;70990;50.618;7.346;2024-03-07T13:03:26;13.30;;;5.15;;
81544;SDS011;70990;50.618;7.346;2024-03-07T13:05:53;11.85;;;4.70;;
81544;SDS011;70990;50.618;7.346;2024-03-07T13:08:19;11.90;;;4.25;;
81544;SDS011;70990;50.618;7.346;2024-03-07T13:10:46;14.88;;;5.35;;
81544;SDS011;70990;50.618;7.346;2024-03-07T13:13:16;13.25;;;5.82;;
81544;SDS011;70990;50.618;7.346;2024-03-07T13:15:43;13.18;;;5.20;;
81544;SDS011;70990;50.618;7.346;2024-03-07T13:18:10;12.43;;;5.07;;
81544;SDS011;70990;50.618;7.346;2024-03-07T13:20:36;14.40;;;5.47;;
81544;SDS011;70990;50.618;7.346;2024-03-07T13:23:04;13.02;;;5.22;;
81544;SDS011;70990;50.618;7.346;2024-03-07T13:25:30;11.48;;;5.32;;
81544;SDS011;70990;50.618;7.346;2024-03-07T13:28:08;10.10;;;5.10;;
81544;SDS011;70990;50.618;7.346;2024-03-07T13:30:37;11.32;;;4.80;;
81544;SDS011;70990;50.618;7.346;2024-03-07T13:33:04;14.65;;;5.70;;
81544;SDS011;70990;50.618;7.346;2024-03-07T13:35:31;12.93;;;4.40;;
81544;SDS011;70990;50.618;7.346;2024-03-07T13:37:57;10.18;;;4.05;;
81544;SDS011;70990;50.618;7.346;2024-03-07T13:40:25;9.63;;;4.60;;
81544;SDS011;70990;50.618;7.346;2024-03-07T13:45:26;10.93;;;4.82;;
81544;SDS011;70990;50.618;7.346;2024-03-07T13:47:54;9.10;;;3.75;;
81544;SDS011;70990;50.618;7.346;2024-03-07T13:50:22;10.95;;;4.55;;
81544;SDS011;70990;50.618;7.346;2024-03-07T13:53:10;10.10;;;4.88;;
81544;SDS011;70990;50.618;7.346;2024-03-07T13:55:46;10.93;;;4.40;;
81544;SDS011;70990;50.618;7.346;2024-03-07T13:58:17;10.60;;;4.53;;
81544;SDS011;70990;50.618;7.346;2024-03-07T14:01:51;10.75;;;4.03;;
81544;SDS011;70990;50.618;7.346;2024-03-07T14:04:11;9.45;;;3.90;;
81544;SDS011;70990;50.618;7.346;2024-03-07T14:15:39;10.75;;;3.65;;
81544;SDS011;70990;50.618;7.346;2024-03-07T14:18:21;12.43;;;4.60;;
81544;SDS011;70990;50.618;7.346;2024-03-07T14:20:59;9.85;;;3.85;;
81544;SDS011;70990;50.618;7.346;2024-03-07T14:27:41;16.02;;;5.55;;
81544;SDS011;70990;50.618;7.346;2024-03-07T14:32:25;12.90;;;5.95;;
81544;SDS011;70990;50.618;7.346;2024-03-07T14:35:00;12.00;;;4.55;;
81544;SDS011;70990;50.618;7.346;2024-03-07T14:37:37;15.30;;;5.10;;
81544;SDS011;70990;50.618;7.346;2024-03-07T14:40:07;12.73;;;5.43;;
81544;SDS011;70990;50.618;7.346;2024-03-07T14:42:39;16.48;;;6.40;;
81544;SDS011;70990;50.618;7.346;2024-03-07T14:45:10;16.80;;;5.88;;
81544;SDS011;70990;50.618;7.346;2024-03-07T14:47:41;12.65;;;4.50;;
81544;SDS011;70990;50.618;7.346;2024-03-07T14:50:08;8.50;;;3.75;;
81544;SDS011;70990;50.618;7.346;2024-03-07T14:52:34;13.23;;;4.68;;
81544;SDS011;70990;50.618;7.346;2024-03-07T14:55:01;15.15;;;6.47;;
81544;SDS011;70990;50.618;7.346;2024-03-07T14:57:28;12.98;;;5.47;;
81544;SDS011;70990;50.618;7.346;2024-03-07T14:59:54;15.48;;;5.28;;
81544;SDS011;70990;50.618;7.346;2024-03-07T15:02:21;12.30;;;4.95;;
81544;SDS011;70990;50.618;7.346;2024-03-07T15:04:48;14.68;;;5.82;;
81544;SDS011;70990;50.618;7.346;2024-03-07T15:07:14;13.10;;;5.78;;